Time;durP1;ratioP1;P1;durP2;ratioP2;P2;SDS_P1;SDS_P2;PMS_P1;PMS_P2;Temp;Humidity;BMP_temperature;BMP_pressure;BME280_temperature;BME280_humidity;BME280_pressure;Samples;Min_cycle;Max_cycle;Signal;HPM_P1;HPM_P2
2024/02/02 00:03:56;;;;;;;5.03;2.03;;;21.90;41.30;;;;;;10460880;28;20140;-47
2024/02/02 00:08:58;;;;;;;7.72;2.30;;;21.90;41.40;;;;;;10464264;28;20053;-51
2024/02/02 00:14:00;;;;;;;4.75;2.00;;;21.90;42.00;;;;;;10468430;28;20586;-49
2024/02/02 00:19:03;;;;;;;4.85;2.05;;;21.90;41.30;;;;;;10456141;28;21988;-51
2024/02/02 00:24:04;;;;;;;4.72;1.95;;;21.90;41.30;;;;;;10461411;28;20566;-52
2024/02/02 00:29:06;;;;;;;5.60;2.22;;;21.90;41.40;;;;;;10453976;28;20048;-50
2024/02/02 00:34:09;;;;;;;4.78;2.13;;;21.90;41.30;;;;;;10455684;28;20051;-51
2024/02/02 00:39:11;;;;;;;4.85;2.08;;;22.00;41.00;;;;;;10463003;28;20059;-50
2024/02/02 00:44:12;;;;;;;6.03;2.08;;;22.00;41.10;;;;;;10469193;28;20047;-51
2024/02/02 00:49:15;;;;;;;4.47;2.10;;;22.00;41.10;;;;;;10460366;28;20123;-50
2024/02/02 00:54:17;;;;;;;4.35;2.10;;;21.90;41.20;;;;;;10456431;28;20064;-51
2024/02/02 00:59:18;;;;;;;4.07;2.10;;;21.80;41.40;;;;;;10455601;28;20045;-48
2024/02/02 01:04:21;;;;;;;4.70;2.40;;;21.70;41.50;;;;;;10457331;28;20055;-50
2024/02/02 01:09:23;;;;;;;4.85;2.20;;;21.60;41.90;;;;;;10454969;28;20495;-48
2024/02/02 01:14:26;;;;;;;3.67;1.83;;;21.50;42.00;;;;;;10460293;28;20094;-48
2024/02/02 01:19:29;;;;;;;4.80;2.10;;;21.30;42.10;;;;;;10465988;28;20048;-49
2024/02/02 01:24:30;;;;;;;5.30;2.40;;;21.20;42.40;;;;;;10470135;28;20160;-49
2024/02/02 01:29:33;;;;;;;4.00;1.90;;;21.10;42.40;;;;;;10455213;28;20076;-48
2024/02/02 01:34:36;;;;;;;5.18;1.92;;;21.00;42.70;;;;;;10451784;28;20110;-49
2024/02/02 01:39:38;;;;;;;5.10;2.00;;;21.00;42.60;;;;;;10457178;28;20152;-47
2024/02/02 01:44:39;;;;;;;4.45;2.20;;;21.00;42.70;;;;;;10452745;28;20140;-52
2024/02/02 01:49:42;;;;;;;4.07;2.00;;;20.90;43.50;;;;;;10456137;28;20051;-53
2024/02/02 01:54:44;;;;;;;3.97;2.65;;;20.80;42.90;;;;;;10463446;28;20047;-51
2024/02/02 01:59:45;;;;;;;5.25;2.20;;;20.80;42.80;;;;;;10466754;28;20045;-51
2024/02/02 02:04:48;;;;;;;4.78;2.50;;;20.80;42.70;;;;;;10456304;28;20075;-52
2024/02/02 02:09:50;;;;;;;5.82;2.35;;;20.80;42.50;;;;;;10442231;28;20165;-53
2024/02/02 02:14:52;;;;;;;5.47;2.25;;;20.90;42.60;;;;;;10454759;28;20128;-50
2024/02/02 02:19:54;;;;;;;3.25;2.10;;;20.80;42.70;;;;;;10455258;28;20049;-51
2024/02/02 02:24:57;;;;;;;5.57;2.28;;;20.90;42.60;;;;;;10451871;28;20412;-51
2024/02/02 02:30:00;;;;;;;5.25;2.70;;;20.90;42.50;;;;;;10457341;28;20477;-47
2024/02/02 02:35:02;;;;;;;9.73;2.90;;;20.70;42.60;;;;;;10465303;28;20044;-49
2024/02/02 02:40:07;;;;;;;4.35;2.50;;;20.80;42.50;;;;;;10456759;28;20055;-45
2024/02/02 02:45:09;;;;;;;5.43;2.80;;;20.90;42.20;;;;;;10453313;28;20049;-47
2024/02/02 02:50:11;;;;;;;4.93;2.80;;;21.00;42.20;;;;;;10451736;28;20059;-55
2024/02/02 02:55:14;;;;;;;6.38;2.95;;;21.00;42.30;;;;;;10456685;28;20051;-54
2024/02/02 03:00:17;;;;;;;3.97;2.78;;;21.00;42.30;;;;;;10454038;28;20078;-47
2024/02/02 03:05:18;;;;;;;4.40;2.85;;;21.10;42.30;;;;;;10457873;28;20409;-46
2024/02/02 03:10:25;;;;;;;6.20;2.92;;;21.10;42.20;;;;;;10459685;28;20052;-47
2024/02/02 03:15:28;;;;;;;5.32;3.10;;;21.10;42.20;;;;;;10463038;28;20064;-49
2024/02/02 03:20:30;;;;;;;5.03;2.85;;;21.00;42.20;;;;;;10462193;28;20480;-49
2024/02/02 03:25:33;;;;;;;5.75;3.00;;;21.10;42.10;;;;;;10457836;28;20041;-47
2024/02/02 03:30:34;;;;;;;6.53;3.20;;;21.10;42.10;;;;;;10461173;28;20550;-49
2024/02/02 03:35:36;;;;;;;4.70;2.90;;;21.20;42.00;;;;;;10462794;28;20123;-53
2024/02/02 03:40:39;;;;;;;4.40;2.72;;;21.10;42.00;;;;;;10461202;28;20147;-50
2024/02/02 03:45:41;;;;;;;3.67;2.65;;;21.10;42.10;;;;;;10459116;28;20683;-47
2024/02/02 03:50:42;;;;;;;4.78;2.58;;;21.10;42.10;;;;;;10465120;28;20048;-46
2024/02/02 03:55:45;;;;;;;5.60;2.80;;;21.10;42.10;;;;;;10459704;28;20517;-46
2024/02/02 04:00:47;;;;;;;5.18;2.95;;;21.00;42.20;;;;;;10457529;28;20167;-46
2024/02/02 04:05:51;;;;;;;4.75;2.88;;;21.10;42.20;;;;;;10450374;28;20049;-47
2024/02/02 04:10:54;;;;;;;4.35;2.50;;;21.50;41.80;;;;;;10459901;28;20160;-52
2024/02/02 04:15:56;;;;;;;4.22;2.60;;;21.60;41.50;;;;;;10464675;28;20049;-49
2024/02/02 04:20:58;;;;;;;4.45;2.53;;;21.80;41.40;;;;;;10459395;28;20562;-47
2024/02/02 04:26:01;;;;;;;4.25;2.33;;;21.90;41.20;;;;;;10462474;28;20043;-48
2024/02/02 04:31:03;;;;;;;3.28;2.55;;;22.00;41.20;;;;;;10460929;28;20127;-48
2024/02/02 04:36:05;;;;;;;3.35;2.25;;;22.10;40.70;;;;;;10465164;28;20048;-51
2024/02/02 04:41:08;;;;;;;3.05;2.28;;;22.10;40.50;;;;;;10456940;28;20043;-50
2024/02/02 04:46:09;;;;;;;2.80;2.08;;;22.30;40.50;;;;;;10459311;28;20494;-52
2024/02/02 04:51:11;;;;;;;4.25;2.38;;;22.40;40.30;;;;;;10461178;28;20391;-54
2024/02/02 04:56:14;;;;;;;2.60;2.17;;;22.40;40.50;;;;;;10457164;28;20159;-48
2024/02/02 05:01:15;;;;;;;5.35;2.22;;;22.30;40.40;;;;;;10464809;28;20041;-48
2024/02/02 05:06:17;;;;;;;4.00;2.20;;;22.40;40.30;;;;;;10463093;28;20036;-48
2024/02/02 05:11:21;;;;;;;3.92;2.05;;;22.50;40.10;;;;;;10459077;28;20052;-47
2024/02/02 05:16:22;;;;;;;3.22;1.90;;;22.70;39.60;;;;;;10457986;28;20578;-45
2024/02/02 05:21:24;;;;;;;3.08;1.95;;;22.80;39.50;;;;;;10448080;28;20040;-47
2024/02/02 05:26:27;;;;;;;4.30;1.98;;;22.80;39.60;;;;;;10454426;28;20048;-44
2024/02/02 05:31:28;;;;;;;2.97;1.70;;;22.90;39.50;;;;;;10461018;28;20051;-49
2024/02/02 05:36:30;;;;;;;3.97;1.88;;;23.10;39.20;;;;;;10461639;28;20041;-49
2024/02/02 05:41:33;;;;;;;2.80;1.77;;;22.90;39.40;;;;;;10462925;28;20479;-47
2024/02/02 05:46:34;;;;;;;2.97;1.95;;;23.10;39.40;;;;;;10459315;28;20120;-46
2024/02/02 05:51:36;;;;;;;3.78;1.77;;;23.20;39.10;;;;;;10459641;28;20139;-47
2024/02/02 05:56:39;;;;;;;2.30;1.73;;;23.20;39.10;;;;;;10454756;28;20144;-48
2024/02/02 06:01:41;;;;;;;2.90;1.90;;;23.20;39.00;;;;;;10453370;28;20046;-48
2024/02/02 06:06:42;;;;;;;3.95;2.10;;;23.30;38.80;;;;;;10459426;28;20127;-49
2024/02/02 06:11:45;;;;;;;3.53;1.70;;;22.90;39.40;;;;;;10462414;28;20045;-48
2024/02/02 06:16:48;;;;;;;3.78;1.70;;;22.80;39.70;;;;;;10460867;28;20044;-51
2024/02/02 06:21:49;;;;;;;3.33;1.83;;;22.60;39.90;;;;;;10459061;28;20063;-49
2024/02/02 06:26:52;;;;;;;4.22;2.03;;;22.40;40.20;;;;;;10454328;28;20055;-49
2024/02/02 06:31:54;;;;;;;2.80;1.70;;;22.40;40.20;;;;;;10461039;28;20136;-50
2024/02/02 06:36:56;;;;;;;3.88;1.92;;;22.30;40.40;;;;;;10455480;28;20044;-49
2024/02/02 06:41:59;;;;;;;3.95;1.70;;;22.30;40.30;;;;;;10453851;28;20136;-53
2024/02/02 06:47:00;;;;;;;4.20;1.98;;;22.20;40.40;;;;;;10457684;28;20037;-50
2024/02/02 06:52:02;;;;;;;2.72;1.58;;;22.30;40.40;;;;;;10460131;28;20136;-49
2024/02/02 06:57:05;;;;;;;3.72;1.70;;;22.20;40.40;;;;;;10459511;28;20044;-48
2024/02/02 07:02:17;;;;;;;4.65;1.90;;;22.20;40.50;;;;;;10454760;28;20040;-53
2024/02/02 07:07:19;;;;;;;3.95;1.63;;;22.20;40.70;;;;;;10466768;28;20120;-52
2024/02/02 07:12:53;;;;;;;4.22;1.73;;;22.20;40.50;;;;;;10464039;28;20040;-51
2024/02/02 07:17:54;;;;;;;3.97;1.90;;;22.20;40.70;;;;;;10457786;28;20048;-53
2024/02/02 07:22:56;;;;;;;6.13;1.70;;;22.10;41.60;;;;;;10464807;28;20143;-52
2024/02/02 07:28:02;;;;;;;5.38;1.90;;;22.10;41.50;;;;;;10467622;28;20491;-50
2024/02/02 07:33:04;;;;;;;5.80;2.17;;;22.20;41.80;;;;;;10463317;28;20433;-50
2024/02/02 07:38:07;;;;;;;5.28;2.15;;;22.30;43.00;;;;;;10464380;28;20603;-49
2024/02/02 07:43:10;;;;;;;4.10;2.33;;;22.30;43.50;;;;;;10449976;28;20045;-54
2024/02/02 07:48:11;;;;;;;5.72;2.05;;;22.50;43.50;;;;;;10467438;28;20482;-51
2024/02/02 07:53:13;;;;;;;13.98;2.60;;;22.60;43.40;;;;;;10456793;28;20052;-51
2024/02/02 07:58:17;;;;;;;9.98;2.28;;;22.40;43.90;;;;;;10457629;28;20045;-49
2024/02/02 08:03:19;;;;;;;18.38;3.85;;;22.70;43.80;;;;;;10466734;28;20049;-50
2024/02/02 08:08:20;;;;;;;14.18;3.67;;;22.80;44.50;;;;;;10472737;28;20055;-50
2024/02/02 08:13:23;;;;;;;19.20;4.30;;;23.00;43.80;;;;;;10461505;28;20484;-49
2024/02/02 08:18:25;;;;;;;12.00;4.15;;;23.00;43.10;;;;;;10458807;28;20056;-45
2024/02/02 08:23:26;;;;;;;15.90;3.88;;;22.90;42.60;;;;;;10462178;28;20044;-44
2024/02/02 08:28:29;;;;;;;13.45;4.53;;;23.20;42.10;;;;;;10457615;28;20045;-51
2024/02/02 08:33:31;;;;;;;15.10;4.70;;;23.30;41.70;;;;;;10456952;28;20557;-45
2024/02/02 08:38:32;;;;;;;15.07;3.90;;;23.10;41.90;;;;;;10461743;28;20413;-47
2024/02/02 08:43:36;;;;;;;12.88;4.50;;;23.00;42.10;;;;;;10465732;28;20063;-45
2024/02/02 08:48:42;;;;;;;13.52;4.10;;;23.20;40.50;;;;;;10462558;28;20052;-49
2024/02/02 08:53:43;;;;;;;18.08;3.55;;;23.70;40.20;;;;;;10458018;28;20140;-48
2024/02/02 08:58:46;;;;;;;11.90;3.33;;;23.90;39.90;;;;;;10450754;28;20047;-49
2024/02/02 09:03:48;;;;;;;8.93;2.80;;;24.20;40.20;;;;;;10459956;28;20531;-46
2024/02/02 09:08:50;;;;;;;13.40;3.53;;;24.30;40.70;;;;;;10452121;28;20060;-50
2024/02/02 09:14:10;;;;;;;8.60;3.08;;;23.70;40.10;;;;;;10456759;28;20062;-51
2024/02/02 09:19:18;;;;;;;10.68;2.90;;;23.70;40.30;;;;;;10456551;28;20045;-52
2024/02/02 09:24:39;;;;;;;9.38;3.20;;;23.70;40.40;;;;;;10465955;28;20053;-45
2024/02/02 09:29:46;;;;;;;9.73;3.13;;;23.90;40.30;;;;;;10449721;28;20041;-48
2024/02/02 09:34:47;;;;;;;12.27;3.33;;;24.00;40.40;;;;;;10449788;28;20059;-46
2024/02/02 09:39:53;;;;;;;7.75;2.55;;;23.70;40.10;;;;;;10454044;28;20136;-50
2024/02/02 09:44:58;;;;;;;7.50;2.67;;;23.80;39.20;;;;;;10459030;28;20080;-49
2024/02/02 09:50:16;;;;;;;6.75;2.78;;;23.80;39.50;;;;;;10460205;28;20052;-46
2024/02/02 09:55:22;;;;;;;8.68;2.72;;;23.80;39.50;;;;;;10460956;28;20049;-49
2024/02/02 10:00:30;;;;;;;9.75;3.13;;;23.80;39.50;;;;;;10462009;28;20049;-46
2024/02/02 10:05:37;;;;;;;7.75;2.67;;;23.80;39.50;;;;;;10460358;28;20049;-48
2024/02/02 10:11:05;;;;;;;6.85;2.75;;;23.90;39.60;;;;;;10457894;28;20416;-47
2024/02/02 10:16:18;;;;;;;9.82;2.95;;;24.00;39.60;;;;;;10454761;28;20140;-46
2024/02/02 10:21:25;;;;;;;11.15;2.50;;;23.90;40.00;;;;;;10456522;28;20479;-44
2024/02/02 10:26:35;;;;;;;9.80;2.38;;;23.90;40.10;;;;;;10455380;28;20445;-46
2024/02/02 10:31:46;;;;;;;8.93;2.85;;;24.00;39.70;;;;;;10457137;28;20099;-48
2024/02/02 10:36:59;;;;;;;13.65;3.25;;;23.90;40.10;;;;;;10458996;28;20514;-51
2024/02/02 10:42:12;;;;;;;13.32;3.15;;;23.60;41.10;;;;;;10457271;28;20045;-50
2024/02/02 10:47:20;;;;;;;12.18;3.88;;;23.60;40.50;;;;;;10455139;28;20045;-48
2024/02/02 10:52:25;;;;;;;10.77;3.53;;;23.80;39.60;;;;;;10460044;28;20127;-48
2024/02/02 10:57:30;;;;;;;13.20;4.30;;;23.70;38.70;;;;;;10450499;28;20048;-46
2024/02/02 11:02:36;;;;;;;19.50;4.20;;;23.60;38.10;;;;;;10454892;28;20383;-49
2024/02/02 11:07:41;;;;;;;10.98;3.38;;;23.60;38.30;;;;;;10462758;28;20499;-45
2024/02/02 11:12:48;;;;;;;14.52;3.53;;;23.50;39.10;;;;;;10465017;28;20139;-47
2024/02/02 11:17:56;;;;;;;12.80;3.33;;;23.30;40.00;;;;;;10455059;28;20422;-48
2024/02/02 11:23:00;;;;;;;14.45;3.70;;;23.30;40.80;;;;;;10447994;28;20455;-50
2024/02/02 11:28:04;;;;;;;12.85;3.55;;;23.30;41.70;;;;;;10458193;28;20798;-46
2024/02/02 11:33:14;;;;;;;11.23;3.80;;;23.40;45.30;;;;;;10443451;28;20136;-46
2024/02/02 11:38:18;;;;;;;8.13;3.13;;;23.50;44.90;;;;;;10449129;28;20499;-47
2024/02/02 11:43:20;;;;;;;13.65;3.60;;;23.40;45.20;;;;;;10458476;28;20427;-46
2024/02/02 11:48:26;;;;;;;16.23;2.90;;;23.50;45.30;;;;;;10466886;28;20133;-48
2024/02/02 11:53:31;;;;;;;8.23;2.83;;;23.30;45.90;;;;;;10461363;28;20163;-51
2024/02/02 11:58:33;;;;;;;11.63;3.88;;;23.30;46.00;;;;;;10458813;28;20477;-49
2024/02/02 12:03:41;;;;;;;15.60;3.60;;;23.30;46.50;;;;;;10454859;28;20052;-45
2024/02/02 12:08:48;;;;;;;9.02;3.00;;;23.20;47.40;;;;;;10467143;28;20033;-45
2024/02/02 12:13:50;;;;;;;10.77;3.17;;;23.50;46.60;;;;;;10458362;28;20074;-49
2024/02/02 12:18:53;;;;;;;9.85;3.20;;;23.40;47.10;;;;;;10457612;28;20045;-46
2024/02/02 12:23:54;;;;;;;11.88;3.92;;;23.30;47.50;;;;;;10464330;28;20052;-49
2024/02/02 12:28:56;;;;;;;10.57;3.83;;;23.40;47.70;;;;;;10466880;28;20131;-44
2024/02/02 12:33:59;;;;;;;9.65;3.50;;;23.40;48.70;;;;;;10461888;28;20053;-45
2024/02/02 12:39:05;;;;;;;6.55;2.83;;;23.20;49.70;;;;;;10461284;28;20117;-45
2024/02/02 12:44:07;;;;;;;8.82;2.67;;;23.20;50.40;;;;;;10454562;28;20075;-46
2024/02/02 12:49:10;;;;;;;8.20;2.65;;;23.50;50.00;;;;;;10459139;28;20051;-49
2024/02/02 12:54:12;;;;;;;10.57;2.78;;;23.50;51.70;;;;;;10458294;28;20136;-50
2024/02/02 12:59:17;;;;;;;7.28;2.53;;;23.60;51.20;;;;;;10457108;28;20070;-47
2024/02/02 13:04:20;;;;;;;11.70;2.53;;;23.50;50.50;;;;;;10466272;28;20045;-43
2024/02/02 13:09:29;;;;;;;11.18;2.50;;;23.80;49.80;;;;;;10466492;28;20139;-51
2024/02/02 13:14:31;;;;;;;7.55;2.90;;;23.80;48.70;;;;;;10458719;28;20696;-50
2024/02/02 13:19:38;;;;;;;13.65;3.13;;;23.90;46.60;;;;;;10453454;28;20044;-46
2024/02/02 13:24:48;;;;;;;7.93;2.88;;;23.80;45.50;;;;;;10449234;28;20049;-52
2024/02/02 13:29:51;;;;;;;8.30;2.67;;;23.70;45.60;;;;;;10456897;28;20139;-47
2024/02/02 13:34:57;;;;;;;6.25;2.65;;;23.60;45.60;;;;;;10456022;28;20057;-47
2024/02/02 13:39:59;;;;;;;6.18;2.30;;;23.60;45.50;;;;;;10453779;28;20135;-48
2024/02/02 13:45:07;;;;;;;4.60;2.25;;;23.50;45.40;;;;;;10463990;28;20053;-44
2024/02/02 13:50:15;;;;;;;5.85;2.45;;;23.50;45.50;;;;;;10459321;28;20056;-44
2024/02/02 13:55:18;;;;;;;8.80;2.03;;;23.60;45.10;;;;;;10459042;28;20045;-46
2024/02/02 14:00:20;;;;;;;6.18;2.22;;;23.60;45.00;;;;;;10443391;28;20056;-47
2024/02/02 14:05:23;;;;;;;6.50;2.72;;;23.50;44.90;;;;;;10459362;28;20043;-44
2024/02/02 14:10:27;;;;;;;4.82;2.20;;;23.50;45.00;;;;;;10447482;28;20533;-44
2024/02/02 14:15:29;;;;;;;5.45;2.03;;;23.50;44.70;;;;;;10455406;28;20041;-51
2024/02/02 14:20:33;;;;;;;7.20;2.17;;;23.50;44.60;;;;;;10455453;28;20528;-43
2024/02/02 14:25:35;;;;;;;5.50;2.35;;;23.40;44.50;;;;;;10457782;28;20053;-47
2024/02/02 14:30:37;;;;;;;5.28;2.55;;;23.30;44.30;;;;;;10454415;28;20044;-51
2024/02/02 14:35:40;;;;;;;4.85;2.10;;;23.40;44.20;;;;;;10446350;28;20041;-50
2024/02/02 14:40:42;;;;;;;6.47;2.20;;;23.50;44.00;;;;;;10456324;28;20045;-45
2024/02/02 14:45:44;;;;;;;5.63;2.05;;;23.50;43.90;;;;;;10454930;28;20037;-44
2024/02/02 14:50:47;;;;;;;7.53;2.40;;;23.40;43.40;;;;;;10455379;28;20144;-44
2024/02/02 14:55:48;;;;;;;5.70;2.05;;;23.40;43.50;;;;;;10455781;28;20045;-54
2024/02/02 15:00:52;;;;;;;5.45;2.30;;;23.30;43.50;;;;;;10460224;28;20053;-50
2024/02/02 15:05:55;;;;;;;4.00;1.75;;;23.50;43.10;;;;;;10456474;28;20102;-50
2024/02/02 15:10:57;;;;;;;4.60;1.83;;;23.30;43.30;;;;;;10451342;28;20048;-44
2024/02/02 15:15:58;;;;;;;5.88;1.98;;;23.40;43.20;;;;;;10453550;28;20108;-49
2024/02/02 15:21:01;;;;;;;4.20;1.85;;;23.40;43.20;;;;;;10459246;28;20041;-48
2024/02/02 15:26:03;;;;;;;4.85;1.77;;;23.40;43.00;;;;;;10463833;28;20051;-46
2024/02/02 15:31:06;;;;;;;5.65;2.28;;;23.50;42.90;;;;;;10463058;28;20140;-47
2024/02/02 15:36:09;;;;;;;8.70;1.83;;;23.50;42.80;;;;;;10462251;28;20044;-49
2024/02/02 15:41:13;;;;;;;4.72;2.00;;;23.30;44.00;;;;;;10463002;28;20583;-50
2024/02/02 15:46:15;;;;;;;6.45;2.00;;;23.20;43.30;;;;;;10466814;28;20106;-46
2024/02/02 15:51:18;;;;;;;4.28;1.80;;;23.20;43.40;;;;;;10455892;28;20477;-45
2024/02/02 15:56:20;;;;;;;3.53;1.65;;;23.10;43.40;;;;;;10453033;28;20473;-48
2024/02/02 16:01:22;;;;;;;3.75;1.77;;;23.20;43.20;;;;;;10463435;28;20052;-50
2024/02/02 16:06:25;;;;;;;3.75;1.58;;;23.40;42.90;;;;;;10461266;28;20707;-43
2024/02/02 16:11:26;;;;;;;5.00;2.00;;;23.30;42.60;;;;;;10455719;28;20059;-51
2024/02/02 16:16:28;;;;;;;3.63;1.75;;;23.50;42.30;;;;;;10458653;28;20140;-44
2024/02/02 16:21:31;;;;;;;5.47;1.73;;;23.60;42.60;;;;;;10454554;28;20486;-46
2024/02/02 16:26:33;;;;;;;11.25;1.77;;;23.60;43.00;;;;;;10451059;28;20067;-44
2024/02/02 16:31:34;;;;;;;6.85;1.60;;;23.50;43.50;;;;;;10450911;28;20136;-43
2024/02/02 16:36:40;;;;;;;12.15;2.08;;;23.50;44.70;;;;;;10453205;28;20140;-45
2024/02/02 16:41:41;;;;;;;5.45;1.90;;;23.60;44.90;;;;;;10463739;28;20072;-43
2024/02/02 16:46:44;;;;;;;4.20;1.65;;;23.60;44.90;;;;;;10460183;28;20090;-42
2024/02/02 16:51:47;;;;;;;9.30;1.98;;;23.70;44.60;;;;;;10461313;28;20045;-42
2024/02/02 16:56:49;;;;;;;8.10;2.13;;;23.80;44.70;;;;;;10455414;28;20053;-45
2024/02/02 17:01:50;;;;;;;6.15;1.73;;;23.80;44.80;;;;;;10460019;28;20077;-47
2024/02/02 17:06:53;;;;;;;11.55;2.22;;;23.90;45.60;;;;;;10455712;28;20120;-44
2024/02/02 17:11:55;;;;;;;4.82;1.70;;;23.90;46.20;;;;;;10450857;28;20493;-43
2024/02/02 17:16:56;;;;;;;5.68;1.60;;;24.00;46.40;;;;;;10454264;28;20152;-46
2024/02/02 17:21:59;;;;;;;3.80;1.90;;;24.00;47.00;;;;;;10456103;28;20062;-44
2024/02/02 17:27:01;;;;;;;3.92;1.85;;;24.10;47.40;;;;;;10455914;28;20127;-53
2024/02/02 17:32:03;;;;;;;8.35;1.80;;;23.90;48.10;;;;;;10462942;28;20473;-43
2024/02/02 17:37:06;;;;;;;5.03;1.65;;;24.00;48.30;;;;;;10453378;28;20086;-43
2024/02/02 17:42:08;;;;;;;6.70;1.58;;;24.10;47.60;;;;;;10451047;28;20048;-46
2024/02/02 17:47:09;;;;;;;15.57;1.70;;;24.10;47.50;;;;;;10454765;28;20048;-47
2024/02/02 17:52:12;;;;;;;6.68;1.35;;;24.20;46.90;;;;;;10452800;28;20072;-47
2024/02/02 17:57:14;;;;;;;4.13;1.40;;;24.20;46.00;;;;;;10455566;28;20077;-43
2024/02/02 18:02:16;;;;;;;3.30;1.42;;;24.10;45.50;;;;;;10455400;28;20055;-44
2024/02/02 18:07:19;;;;;;;3.28;1.20;;;24.10;45.40;;;;;;10459260;28;20135;-50
2024/02/02 18:12:21;;;;;;;4.55;1.35;;;24.00;45.00;;;;;;10446470;28;20414;-44
2024/02/02 18:17:23;;;;;;;3.70;1.60;;;24.00;44.50;;;;;;10457275;28;20124;-48
2024/02/02 18:22:26;;;;;;;3.38;1.60;;;24.00;44.40;;;;;;10451331;28;20049;-50
2024/02/02 18:27:27;;;;;;;3.13;1.50;;;23.90;44.30;;;;;;10444609;28;20041;-47
2024/02/02 18:32:29;;;;;;;6.93;1.50;;;23.90;44.00;;;;;;10454051;28;20047;-52
2024/02/02 18:37:32;;;;;;;5.53;1.60;;;23.80;44.60;;;;;;10455296;28;20127;-48
2024/02/02 18:42:34;;;;;;;3.10;1.30;;;24.00;44.90;;;;;;10457459;28;20044;-43
2024/02/02 18:47:37;;;;;;;9.15;1.45;;;24.00;44.30;;;;;;10455720;28;20052;-47
2024/02/02 18:52:45;;;;;;;7.32;1.52;;;24.00;44.50;;;;;;10454825;28;20053;-44
2024/02/02 18:57:46;;;;;;;10.70;1.67;;;24.00;44.70;;;;;;10459684;28;20119;-45
2024/02/02 19:02:48;;;;;;;5.95;1.50;;;23.90;45.10;;;;;;10455749;28;20053;-47
2024/02/02 19:07:51;;;;;;;8.10;1.50;;;23.90;45.60;;;;;;10458393;28;20528;-44
2024/02/02 19:12:53;;;;;;;9.13;1.73;;;24.00;45.60;;;;;;10462513;28;20048;-47
2024/02/02 19:17:54;;;;;;;8.98;1.40;;;23.80;46.10;;;;;;10464613;28;20044;-44
2024/02/02 19:22:58;;;;;;;9.00;1.40;;;23.80;46.70;;;;;;10463301;28;20048;-43
2024/02/02 19:27:59;;;;;;;5.63;1.40;;;24.00;46.20;;;;;;10445980;28;20069;-47
2024/02/02 19:33:01;;;;;;;7.63;1.50;;;24.00;46.50;;;;;;10461880;28;20124;-41
2024/02/02 19:38:04;;;;;;;6.82;1.65;;;24.20;46.70;;;;;;10455447;28;20033;-43
2024/02/02 19:43:05;;;;;;;6.20;1.33;;;24.10;47.10;;;;;;10459758;28;20041;-49
2024/02/02 19:48:08;;;;;;;7.97;1.48;;;24.20;47.50;;;;;;10462597;28;20566;-42
2024/02/02 19:53:11;;;;;;;7.00;1.42;;;24.20;47.70;;;;;;10462082;28;20063;-43
2024/02/02 19:58:13;;;;;;;9.07;1.75;;;24.10;47.80;;;;;;10463860;28;20047;-50
2024/02/02 20:03:15;;;;;;;11.05;1.50;;;24.20;48.00;;;;;;10469463;28;20056;-49
2024/02/02 20:08:18;;;;;;;6.68;1.80;;;24.10;47.50;;;;;;10452271;28;20049;-42
2024/02/02 20:13:21;;;;;;;5.90;1.98;;;24.10;47.30;;;;;;10459893;28;20048;-44
2024/02/02 20:18:22;;;;;;;6.78;1.85;;;24.00;47.20;;;;;;10458514;28;20514;-44
2024/02/02 20:23:25;;;;;;;8.23;1.70;;;23.80;47.20;;;;;;10464551;28;20131;-45
2024/02/02 20:28:27;;;;;;;9.65;1.90;;;23.70;47.20;;;;;;10457445;28;20033;-42
2024/02/02 20:33:28;;;;;;;7.82;2.05;;;23.60;47.40;;;;;;10463959;28;20047;-54
2024/02/02 20:38:31;;;;;;;4.90;1.58;;;23.60;47.60;;;;;;10464188;28;20578;-48
2024/02/02 20:43:33;;;;;;;5.85;2.13;;;23.50;48.00;;;;;;10454423;28;20044;-42
2024/02/02 20:48:35;;;;;;;10.45;1.98;;;23.50;47.60;;;;;;10458772;28;20044;-48
2024/02/02 20:53:37;;;;;;;5.32;2.10;;;23.50;47.40;;;;;;10454774;28;20040;-41
2024/02/02 20:58:39;;;;;;;6.72;2.20;;;23.40;47.20;;;;;;10456677;28;20417;-46
2024/02/02 21:03:41;;;;;;;5.70;1.98;;;23.20;47.50;;;;;;10459930;28;20128;-44
2024/02/02 21:08:44;;;;;;;7.43;1.70;;;23.10;47.20;;;;;;10461231;28;20037;-44
2024/02/02 21:13:46;;;;;;;4.78;1.80;;;22.70;45.70;;;;;;10461742;28;20044;-50
2024/02/02 21:18:49;;;;;;;3.97;1.75;;;22.80;46.40;;;;;;10453233;28;20155;-52
2024/02/02 21:23:52;;;;;;;5.57;2.10;;;22.80;46.40;;;;;;10451707;28;20048;-44
2024/02/02 21:28:54;;;;;;;7.00;2.00;;;22.70;46.70;;;;;;10457369;28;20054;-45
2024/02/02 21:33:56;;;;;;;7.97;2.10;;;22.70;46.50;;;;;;10455164;28;20056;-47
2024/02/02 21:38:58;;;;;;;9.65;2.28;;;22.80;46.50;;;;;;10461694;28;20099;-44
2024/02/02 21:44:00;;;;;;;71.15;15.10;;;22.70;46.40;;;;;;10455740;28;20154;-46
2024/02/02 21:49:02;;;;;;;171.30;30.20;;;22.60;46.70;;;;;;10466056;28;20040;-44
2024/02/02 21:54:07;;;;;;;179.07;38.08;;;22.60;46.80;;;;;;10461371;28;20055;-52
2024/02/02 21:59:08;;;;;;;195.27;40.83;;;22.50;47.10;;;;;;10445593;28;20063;-44
2024/02/02 22:04:11;;;;;;;179.13;39.50;;;22.40;47.10;;;;;;10457211;28;20059;-48
2024/02/02 22:09:14;;;;;;;158.27;35.83;;;22.50;46.90;;;;;;10458196;28;20048;-51
2024/02/02 22:14:17;;;;;;;143.45;34.05;;;22.40;47.10;;;;;;10458424;28;20041;-49
2024/02/02 22:19:19;;;;;;;139.60;35.08;;;22.30;47.20;;;;;;10457794;28;20505;-46
2024/02/02 22:24:22;;;;;;;122.97;31.15;;;22.20;47.50;;;;;;10461443;28;20451;-49
2024/02/02 22:29:23;;;;;;;128.77;29.65;;;22.30;47.30;;;;;;10455949;28;20063;-50
2024/02/02 22:34:25;;;;;;;111.53;29.27;;;22.30;47.10;;;;;;10451421;28;20048;-47
2024/02/02 22:39:28;;;;;;;111.00;27.52;;;22.30;47.10;;;;;;10451528;28;20040;-46
2024/02/02 22:44:30;;;;;;;90.93;24.77;;;22.30;47.10;;;;;;10464532;28;20511;-50
2024/02/02 22:49:32;;;;;;;79.38;23.85;;;22.40;47.60;;;;;;10455513;28;20044;-47
2024/02/02 22:54:34;;;;;;;74.32;20.70;;;22.30;46.90;;;;;;10459349;28;20044;-44
2024/02/02 22:59:36;;;;;;;66.68;19.42;;;22.40;46.90;;;;;;10453594;28;20194;-48
2024/02/02 23:04:38;;;;;;;61.00;19.25;;;22.50;46.50;;;;;;10465107;28;20051;-52
2024/02/02 23:09:41;;;;;;;66.38;18.13;;;22.50;46.50;;;;;;10463958;28;20491;-48
2024/02/02 23:14:42;;;;;;;52.97;16.83;;;22.40;47.10;;;;;;10439180;28;20052;-44
2024/02/02 23:19:44;;;;;;;45.35;15.80;;;22.40;46.90;;;;;;10461130;28;20052;-47
2024/02/02 23:24:47;;;;;;;45.55;16.33;;;22.40;47.70;;;;;;10464449;28;20057;-48
2024/02/02 23:29:48;;;;;;;41.20;14.82;;;22.40;47.50;;;;;;10455172;28;20131;-47
2024/02/02 23:34:50;;;;;;;39.80;14.73;;;22.50;47.10;;;;;;10457697;28;20056;-46
2024/02/02 23:39:53;;;;;;;39.38;14.52;;;22.50;46.90;;;;;;10464661;28;20061;-48
2024/02/02 23:44:55;;;;;;;33.30;13.20;;;22.50;46.90;;;;;;10470932;28;20059;-45
2024/02/02 23:49:57;;;;;;;33.83;13.95;;;22.50;46.90;;;;;;10457427;28;20105;-45
2024/02/02 23:55:00;;;;;;;35.00;14.20;;;22.50;46.80;;;;;;10453452;28;20048;-50
